Messwerte Moirana

Temperatur

Temperatur
°C
1594634400 12.00 12.00 14
1594638000 13.00 13.00 15
1594641600 14.00 14.00 15
1594645200 15.00 15.00 14
1594648800 16.00 16.00 14
1594652400 17.00 17.00 15
1594656000 18.00 18.00 15
1594659600 19.00 19.00
1594663200 20.00 20.00 14
1594666800 21.00 21.00 15
1594670400 22.00 22.00 15
1594674000 23.00 23.00 15
1594677600 0.00 0.00 12
1594681200 1.00 1.00 9
1594684800 2.00 2.00 8
1594688400 3.00 3.00
1594692000 4.00 4.00
1594695600 5.00 5.00
1594699200 6.00 6.00 8
1594702800 7.00 7.00 10
1594706400 8.00 8.00 11
1594710000 9.00 9.00 12
1594713600 10.00 10.00 15
1594717200 11.00 11.00 15

Aktuellste Messwerte

Wettercharakter
Wetter: wechselnd bewölkt
Temperatur
17 °C
Feuchtigkeit
55 %
Wind
15 km/hWindrichtung: Nordost
Luftdruck
1012 hPa
Messzeit: 14. Juli 2020, 12.00Datenquelle: METAR

Weitere Messstationen in der Nähe

Messstation Temperatur Entfernung
Hemavan Gierevarto 14 °C 71 km
Mosjoen Kjaers 18 °C 82 km
Sandnessjøen 17 °C 93 km
Bodoe 17 °C 100 km
Brønnøysund 16 °C 137 km
Leknes 18 °C 200 km
Svolvær 18 °C 210 km

Wind

Windrichtung Böen Mittelwind
° km/h km/h
1594634400 12.00 11.00 - 12.00 270° 15
1594638000 13.00 12.00 - 13.00 280° 15
1594641600 14.00 13.00 - 14.00 280° 15
1594645200 15.00 14.00 - 15.00 280° 15
1594648800 16.00 15.00 - 16.00 290° 10
1594652400 17.00 16.00 - 17.00 320° 15
1594656000 18.00 17.00 - 18.00 260° 15
1594659600 19.00 18.00 - 19.00
1594663200 20.00 19.00 - 20.00 260° 15
1594666800 21.00 20.00 - 21.00 280° 15
1594670400 22.00 21.00 - 22.00 280° 20
1594674000 23.00 22.00 - 23.00 280° 20
1594677600 0.00 23.00 - 0.00 5
1594681200 1.00 0.00 - 1.00 170° 5
1594684800 2.00 1.00 - 2.00 170° 5
1594688400 3.00 2.00 - 3.00
1594692000 4.00 3.00 - 4.00
1594695600 5.00 4.00 - 5.00
1594699200 6.00 5.00 - 6.00 5
1594702800 7.00 6.00 - 7.00 300° 5
1594706400 8.00 7.00 - 8.00 320° 5
1594710000 9.00 8.00 - 9.00 340° 5
1594713600 10.00 9.00 - 10.00 310° 10
1594717200 11.00 10.00 - 11.00 350° 5

Ihre Wetterstation

Fehlt Ihre Wetterstation auf unserem Portal?

Schreiben Sie an network@meteonews.ch

Klima

Wann ist es am wärmsten? Wann regnet es am wenigsten? Unsere Klimadaten geben Auskunft.